createdAt,value
2019-05-14T00:00:24.274Z,45.86
2019-05-14T00:00:59.755Z,45.96
2019-05-14T00:01:35.791Z,46.13
2019-05-14T00:02:12.366Z,45.86
2019-05-14T00:02:48.107Z,45.86
2019-05-14T00:03:24.001Z,46.06
2019-05-14T00:04:02.077Z,46.14
2019-05-14T00:04:37.744Z,46.34
2019-05-14T00:05:13.940Z,46.36
2019-05-14T00:05:51.750Z,46.48
2019-05-14T00:06:27.398Z,46.38
2019-05-14T00:07:03.384Z,46.30
2019-05-14T00:07:41.394Z,46.30
2019-05-14T00:08:17.631Z,46.53
2019-05-14T00:08:53.810Z,46.41
2019-05-14T00:09:32.024Z,46.69
2019-05-14T00:10:08.043Z,46.69
2019-05-14T00:10:43.852Z,46.90
2019-05-14T00:11:21.960Z,46.88
2019-05-14T00:11:58.210Z,46.99
2019-05-14T00:12:34.557Z,47.02
2019-05-14T00:13:12.038Z,47.22
2019-05-14T00:13:48.096Z,47.07
2019-05-14T00:14:36.521Z,47.14
2019-05-14T00:15:02.354Z,47.13
2019-05-14T00:15:37.770Z,47.08
2019-05-14T00:16:13.817Z,47.08
2019-05-14T00:16:51.370Z,46.97
2019-05-14T00:17:27.550Z,46.89
2019-05-14T00:18:03.401Z,46.77
2019-05-14T00:18:41.766Z,46.99
2019-05-14T00:19:17.193Z,47.01
2019-05-14T00:20:06.327Z,47.07
2019-05-14T00:20:31.590Z,47.07
2019-05-14T00:21:07.286Z,47.30
2019-05-14T00:21:43.589Z,47.13
2019-05-14T00:22:21.685Z,47.37
2019-05-14T00:22:56.818Z,47.33
2019-05-14T00:23:33.221Z,47.49
2019-05-14T00:24:11.407Z,47.62
2019-05-14T00:24:47.228Z,47.74
2019-05-14T00:25:23.150Z,47.34
2019-05-14T00:26:01.501Z,47.34
2019-05-14T00:26:36.597Z,47.57
2019-05-14T00:27:12.807Z,47.57
2019-05-14T00:27:48.602Z,47.77
2019-05-14T00:28:24.715Z,47.81
2019-05-14T00:29:01.668Z,47.81
2019-05-14T00:29:38.025Z,47.95
2019-05-14T00:30:13.749Z,48.09
2019-05-14T00:30:52.223Z,48.06
2019-05-14T00:31:27.806Z,48.16
2019-05-14T00:32:03.808Z,48.17
2019-05-14T00:32:41.389Z,48.01
2019-05-14T00:33:18.004Z,47.82
2019-05-14T00:33:53.663Z,47.84
2019-05-14T00:34:31.517Z,47.84
2019-05-14T00:35:07.964Z,47.72
2019-05-14T00:35:43.602Z,47.72
2019-05-14T00:36:21.509Z,47.76
2019-05-14T00:36:57.841Z,47.82
2019-05-14T00:37:33.297Z,47.81
2019-05-14T00:38:09.307Z,47.78
2019-05-14T00:38:45.322Z,47.78
2019-05-14T00:39:21.410Z,47.91
2019-05-14T00:39:58.341Z,47.91
2019-05-14T00:40:34.344Z,47.63
2019-05-14T00:41:11.127Z,47.63
2019-05-14T00:41:47.419Z,47.76
2019-05-14T00:42:23.852Z,47.76
2019-05-14T00:43:02.463Z,47.70
2019-05-14T00:43:37.905Z,47.62
2019-05-14T00:44:14.434Z,47.56
2019-05-14T00:44:56.949Z,47.61
2019-05-14T00:45:27.944Z,47.72
2019-05-14T00:46:04.431Z,47.76
2019-05-14T00:46:41.089Z,47.83
2019-05-14T00:47:17.185Z,47.93
2019-05-14T00:47:53.674Z,47.93
2019-05-14T00:48:31.779Z,48.09
2019-05-14T00:49:07.509Z,48.13
2019-05-14T00:49:43.372Z,48.13
2019-05-14T00:50:21.589Z,47.98
2019-05-14T00:50:57.590Z,47.83
2019-05-14T00:51:33.630Z,48.31
2019-05-14T00:52:11.527Z,47.96
2019-05-14T00:52:47.888Z,47.96
2019-05-14T00:53:24.031Z,48.33
2019-05-14T00:54:01.713Z,48.33
2019-05-14T00:54:37.962Z,48.37
2019-05-14T00:55:14.596Z,48.20
2019-05-14T00:55:51.570Z,48.20
2019-05-14T00:56:28.246Z,48.26
2019-05-14T00:57:04.078Z,48.03
2019-05-14T00:57:42.272Z,47.75
2019-05-14T00:58:17.758Z,47.75
2019-05-14T00:58:54.057Z,48.08
2019-05-14T00:59:32.002Z,48.33
2019-05-14T01:00:08.393Z,48.53
2019-05-14T01:00:44.774Z,48.53
2019-05-14T01:01:21.468Z,48.53
2019-05-14T01:01:57.849Z,48.62
2019-05-14T01:02:34.225Z,48.62
2019-05-14T01:03:11.103Z,48.58
2019-05-14T01:03:47.187Z,48.19
2019-05-14T01:04:23.399Z,48.26
2019-05-14T01:05:01.718Z,48.53
2019-05-14T01:05:37.496Z,48.53
2019-05-14T01:06:13.526Z,48.62
2019-05-14T01:06:51.010Z,48.58
2019-05-14T01:07:27.432Z,48.61
2019-05-14T01:08:03.847Z,48.71
2019-05-14T01:08:41.383Z,48.71
2019-05-14T01:09:17.713Z,48.86
2019-05-14T01:09:53.889Z,48.86
2019-05-14T01:10:31.315Z,49.12
2019-05-14T01:11:07.312Z,49.00
2019-05-14T01:11:43.228Z,49.13
2019-05-14T01:12:21.260Z,49.28
2019-05-14T01:12:57.065Z,49.28
2019-05-14T01:13:33.436Z,48.90
2019-05-14T01:14:09.208Z,48.90
2019-05-14T01:14:46.453Z,49.14
2019-05-14T01:15:22.470Z,49.54
2019-05-14T01:15:58.456Z,49.54
2019-05-14T01:16:34.283Z,49.15
2019-05-14T01:17:11.372Z,49.10
2019-05-14T01:17:47.155Z,49.34
2019-05-14T01:18:23.414Z,49.34
2019-05-14T01:19:01.840Z,49.05
2019-05-14T01:19:37.016Z,49.43
2019-05-14T01:20:13.169Z,49.28
2019-05-14T01:20:51.689Z,49.62
2019-05-14T01:21:26.589Z,49.58
2019-05-14T01:22:02.593Z,49.58
2019-05-14T01:22:39.440Z,49.71
2019-05-14T01:23:15.063Z,49.19
2019-05-14T01:23:51.453Z,49.19
2019-05-14T01:24:27.934Z,49.48
2019-05-14T01:25:03.576Z,49.71
2019-05-14T01:25:42.050Z,49.71
2019-05-14T01:26:17.490Z,49.90
2019-05-14T01:26:54.870Z,49.90
2019-05-14T01:27:31.697Z,49.90
2019-05-14T01:28:07.832Z,49.90
2019-05-14T01:28:43.259Z,50.02
2019-05-14T01:29:21.824Z,49.92
2019-05-14T01:29:57.907Z,50.01
2019-05-14T01:30:33.575Z,50.20
2019-05-14T01:31:11.365Z,50.08
2019-05-14T01:31:47.836Z,50.06
2019-05-14T01:32:23.961Z,50.06
2019-05-14T01:33:01.793Z,50.48
2019-05-14T01:33:37.545Z,50.25
2019-05-14T01:34:13.538Z,50.49
2019-05-14T01:34:51.967Z,50.43
2019-05-14T01:35:27.396Z,50.43
2019-05-14T01:36:02.838Z,50.57
2019-05-14T01:36:41.193Z,50.65
2019-05-14T01:37:16.624Z,50.65
2019-05-14T01:37:52.426Z,50.67
2019-05-14T01:38:28.411Z,50.61
2019-05-14T01:39:05.899Z,50.68
2019-05-14T01:39:42.063Z,50.33
2019-05-14T01:40:18.209Z,50.67
2019-05-14T01:40:54.310Z,50.75
2019-05-14T01:41:31.709Z,50.59
2019-05-14T01:42:07.669Z,50.59
2019-05-14T01:42:43.660Z,50.65
2019-05-14T01:43:19.092Z,51.07
2019-05-14T01:43:55.129Z,50.98
2019-05-14T01:44:31.958Z,50.98
2019-05-14T01:45:20.214Z,50.80
2019-05-14T01:45:45.689Z,51.10
2019-05-14T01:46:21.679Z,51.09
2019-05-14T01:46:57.347Z,51.12
2019-05-14T01:47:33.354Z,51.51
2019-05-14T01:48:11.513Z,51.51
2019-05-14T01:48:46.750Z,51.33
2019-05-14T01:49:22.800Z,51.60
2019-05-14T01:49:59.254Z,51.60
2019-05-14T01:50:35.072Z,51.33
2019-05-14T01:51:11.879Z,51.33
2019-05-14T01:51:51.040Z,51.47
2019-05-14T01:52:26.237Z,51.46
2019-05-14T01:53:02.114Z,51.68
2019-05-14T01:53:38.111Z,51.39
2019-05-14T01:54:13.728Z,51.39
2019-05-14T01:54:51.551Z,51.83
2019-05-14T01:55:27.268Z,51.90
2019-05-14T01:56:02.888Z,51.90
2019-05-14T01:56:39.164Z,52.01
2019-05-14T01:57:15.259Z,52.01
2019-05-14T01:57:51.782Z,51.51
2019-05-14T01:58:28.041Z,51.41
2019-05-14T01:59:04.061Z,51.41
2019-05-14T01:59:42.569Z,51.67
2019-05-14T02:00:17.977Z,51.49
2019-05-14T02:00:54.120Z,51.37
2019-05-14T02:01:31.503Z,51.41
2019-05-14T02:02:07.782Z,51.66
2019-05-14T02:02:43.607Z,51.66
2019-05-14T02:03:21.397Z,51.63
2019-05-14T02:03:57.920Z,51.66
2019-05-14T02:04:34.107Z,51.77
2019-05-14T02:05:12.243Z,51.93
2019-05-14T02:05:47.481Z,52.27
2019-05-14T02:06:23.608Z,52.27
2019-05-14T02:07:02.291Z,52.01
2019-05-14T02:07:38.096Z,52.10
2019-05-14T02:08:14.075Z,52.11
2019-05-14T02:08:51.470Z,52.05
2019-05-14T02:09:27.827Z,52.01
2019-05-14T02:10:03.632Z,52.10
2019-05-14T02:10:41.793Z,52.47
2019-05-14T02:11:17.461Z,52.47
2019-05-14T02:11:53.488Z,52.11
2019-05-14T02:12:31.365Z,52.13
2019-05-14T02:13:07.034Z,52.04
2019-05-14T02:13:43.382Z,52.03
2019-05-14T02:14:19.314Z,52.14
2019-05-14T02:14:55.587Z,51.64
2019-05-14T02:15:39.555Z,51.64
2019-05-14T02:16:12.773Z,51.96
2019-05-14T02:16:47.012Z,51.90
2019-05-14T02:17:23.287Z,51.90
2019-05-14T02:17:59.304Z,52.06
2019-05-14T02:18:35.658Z,52.06
2019-05-14T02:19:11.734Z,51.83
2019-05-14T02:19:47.298Z,51.92
2019-05-14T02:20:23.298Z,51.98
2019-05-14T02:21:01.590Z,51.87
2019-05-14T02:21:37.474Z,51.65
2019-05-14T02:22:13.566Z,51.65
2019-05-14T02:22:52.450Z,51.85
2019-05-14T02:23:28.347Z,52.31
2019-05-14T02:24:04.691Z,52.04
2019-05-14T02:24:41.824Z,52.04
2019-05-14T02:25:18.070Z,52.04
2019-05-14T02:25:54.398Z,52.17
2019-05-14T02:26:31.728Z,52.29
2019-05-14T02:27:07.285Z,52.21
2019-05-14T02:27:43.628Z,52.26
2019-05-14T02:28:21.977Z,52.41
2019-05-14T02:28:57.742Z,52.44
2019-05-14T02:29:34.445Z,52.39
2019-05-14T02:30:11.444Z,52.39
2019-05-14T02:30:57.038Z,52.54
2019-05-14T02:31:24.813Z,52.76
2019-05-14T02:32:00.663Z,52.90
2019-05-14T02:32:36.273Z,52.90
2019-05-14T02:33:12.274Z,52.96
2019-05-14T02:33:50.441Z,52.96
2019-05-14T02:34:25.451Z,52.90
2019-05-14T02:35:01.461Z,53.09
2019-05-14T02:35:39.798Z,53.03
2019-05-14T02:36:15.185Z,53.02
2019-05-14T02:36:51.166Z,53.27
2019-05-14T02:37:29.898Z,52.93
2019-05-14T02:38:04.673Z,52.98
2019-05-14T02:38:40.702Z,52.91
2019-05-14T02:39:19.418Z,52.91
2019-05-14T02:39:53.993Z,52.93
2019-05-14T02:40:30.313Z,53.03
2019-05-14T02:41:09.718Z,52.95
2019-05-14T02:41:43.790Z,53.17
2019-05-14T02:42:19.961Z,53.05
2019-05-14T02:42:59.040Z,52.94
2019-05-14T02:43:33.813Z,52.94
2019-05-14T02:44:10.255Z,52.87
2019-05-14T02:44:48.758Z,52.87
2019-05-14T02:45:24.421Z,53.10
2019-05-14T02:46:11.314Z,53.14
2019-05-14T02:46:40.501Z,53.00
2019-05-14T02:47:19.396Z,53.08
2019-05-14T02:47:54.735Z,53.08
2019-05-14T02:48:30.779Z,53.19
2019-05-14T02:49:06.203Z,53.26
2019-05-14T02:49:42.641Z,53.22
2019-05-14T02:50:20.200Z,53.24
2019-05-14T02:50:59.569Z,53.23
2019-05-14T02:51:34.156Z,53.23
2019-05-14T02:52:10.513Z,53.23
2019-05-14T02:52:49.389Z,53.63
2019-05-14T02:53:24.903Z,53.64
2019-05-14T02:54:00.815Z,53.64
2019-05-14T02:54:40.055Z,53.51
2019-05-14T02:55:14.506Z,53.43
2019-05-14T02:55:50.596Z,53.54
2019-05-14T02:56:29.329Z,53.63
2019-05-14T02:57:04.462Z,53.56
2019-05-14T02:57:40.741Z,53.58
2019-05-14T02:58:20.711Z,53.33
2019-05-14T02:58:54.987Z,53.39
2019-05-14T02:59:31.069Z,53.39
2019-05-14T03:00:10.171Z,53.46
2019-05-14T03:00:48.997Z,53.56
2019-05-14T03:01:23.712Z,53.50
2019-05-14T03:01:59.736Z,53.29
2019-05-14T03:02:35.957Z,53.07
2019-05-14T03:03:12.494Z,53.07
2019-05-14T03:03:49.511Z,53.64
2019-05-14T03:04:25.904Z,53.64
2019-05-14T03:05:02.057Z,53.93
2019-05-14T03:05:40.181Z,53.82
2019-05-14T03:06:15.445Z,53.82
2019-05-14T03:06:52.405Z,54.00
2019-05-14T03:07:29.847Z,54.08
2019-05-14T03:08:09.066Z,54.18
2019-05-14T03:08:43.769Z,54.19
2019-05-14T03:09:20.377Z,54.19
2019-05-14T03:09:59.398Z,54.19
2019-05-14T03:10:34.951Z,54.26
2019-05-14T03:11:10.401Z,54.38
2019-05-14T03:11:48.501Z,54.11
2019-05-14T03:12:25.130Z,54.31
2019-05-14T03:13:00.893Z,54.31
2019-05-14T03:13:39.890Z,54.32
2019-05-14T03:14:14.797Z,54.32
2019-05-14T03:14:50.540Z,54.29
2019-05-14T03:15:29.094Z,54.33
2019-05-14T03:16:21.125Z,54.56
2019-05-14T03:16:42.844Z,54.48
2019-05-14T03:17:19.825Z,54.41
2019-05-14T03:17:56.231Z,54.46
2019-05-14T03:18:32.214Z,54.39
2019-05-14T03:19:09.906Z,54.48
2019-05-14T03:19:49.328Z,54.54
2019-05-14T03:20:23.768Z,54.60
2019-05-14T03:21:00.837Z,54.60
2019-05-14T03:21:39.572Z,54.73
2019-05-14T03:22:14.814Z,54.73
2019-05-14T03:23:03.452Z,55.16
2019-05-14T03:23:30.287Z,55.16
2019-05-14T03:24:09.117Z,54.84
2019-05-14T03:24:44.504Z,54.68
2019-05-14T03:25:21.393Z,54.76
2019-05-14T03:26:00.092Z,54.87
2019-05-14T03:26:34.951Z,55.00
2019-05-14T03:27:10.927Z,55.00
2019-05-14T03:27:49.644Z,55.15
2019-05-14T03:28:25.271Z,55.15
2019-05-14T03:29:01.305Z,55.51
2019-05-14T03:29:39.842Z,55.51
2019-05-14T03:30:15.218Z,55.62
2019-05-14T03:30:52.955Z,55.68
2019-05-14T03:31:32.948Z,55.61
2019-05-14T03:32:11.873Z,55.61
2019-05-14T03:32:44.422Z,55.62
2019-05-14T03:33:22.036Z,55.54
2019-05-14T03:34:02.711Z,55.54
2019-05-14T03:34:42.130Z,55.58
2019-05-14T03:35:14.627Z,55.58
2019-05-14T03:35:58.577Z,55.63
2019-05-14T03:36:34.788Z,55.90
2019-05-14T03:37:12.045Z,55.90
2019-05-14T03:37:44.451Z,55.83
2019-05-14T03:38:20.251Z,55.90
2019-05-14T03:38:59.202Z,55.80
2019-05-14T03:39:33.717Z,55.93
2019-05-14T03:40:10.165Z,55.68
2019-05-14T03:40:45.798Z,55.69
2019-05-14T03:41:21.817Z,55.98
2019-05-14T03:41:59.093Z,55.98
2019-05-14T03:42:35.141Z,56.04
2019-05-14T03:43:10.966Z,55.97
2019-05-14T03:43:49.452Z,55.99
2019-05-14T03:44:24.930Z,55.98
2019-05-14T03:45:00.934Z,55.98
2019-05-14T03:45:39.184Z,55.98
2019-05-14T03:46:14.543Z,55.98
2019-05-14T03:46:55.355Z,55.90
2019-05-14T03:47:29.849Z,55.97
2019-05-14T03:48:10.009Z,56.11
2019-05-14T03:48:44.199Z,56.11
2019-05-14T03:49:20.497Z,56.19
2019-05-14T03:49:58.790Z,56.41
2019-05-14T03:50:34.000Z,56.49
2019-05-14T03:51:10.040Z,56.39
2019-05-14T03:51:46.069Z,56.49
2019-05-14T03:52:22.097Z,56.42
2019-05-14T03:52:59.500Z,56.48
2019-05-14T03:53:52.157Z,56.69
2019-05-14T03:54:13.463Z,56.69
2019-05-14T03:54:49.979Z,56.75
2019-05-14T03:55:29.001Z,56.87
2019-05-14T03:56:03.503Z,56.93
2019-05-14T03:56:39.783Z,57.04
2019-05-14T03:57:15.988Z,57.01
2019-05-14T03:57:51.830Z,56.91
2019-05-14T03:58:30.182Z,56.93
2019-05-14T03:59:05.307Z,57.14
2019-05-14T03:59:42.344Z,57.08
2019-05-14T04:00:21.195Z,57.04
2019-05-14T04:01:01.119Z,57.01
2019-05-14T04:01:40.131Z,57.15
2019-05-14T04:02:19.572Z,57.22
2019-05-14T04:02:53.086Z,57.32
2019-05-14T04:03:31.088Z,57.11
2019-05-14T04:04:10.224Z,57.20
2019-05-14T04:04:44.819Z,57.21
2019-05-14T04:05:22.660Z,57.06
2019-05-14T04:06:00.568Z,57.04
2019-05-14T04:06:36.430Z,57.33
2019-05-14T04:07:12.983Z,57.30
2019-05-14T04:07:50.429Z,57.36
2019-05-14T04:08:29.343Z,57.33
2019-05-14T04:09:09.728Z,57.11
2019-05-14T04:09:49.145Z,57.21
2019-05-14T04:10:23.708Z,57.24
2019-05-14T04:11:02.543Z,57.27
2019-05-14T04:11:41.049Z,57.33
2019-05-14T04:12:19.438Z,57.49
2019-05-14T04:12:59.656Z,57.34
2019-05-14T04:13:34.910Z,57.34
2019-05-14T04:14:14.334Z,57.17
2019-05-14T04:14:53.531Z,57.23
2019-05-14T04:15:31.802Z,57.29
2019-05-14T04:16:09.407Z,57.28
2019-05-14T04:17:01.230Z,57.24
2019-05-14T04:17:36.188Z,57.25
2019-05-14T04:18:03.943Z,57.35
2019-05-14T04:18:41.423Z,57.43
2019-05-14T04:19:19.580Z,57.45
2019-05-14T04:19:59.919Z,57.51
2019-05-14T04:20:39.125Z,57.53
2019-05-14T04:21:15.917Z,57.55
2019-05-14T04:21:51.595Z,57.51
2019-05-14T04:22:29.903Z,57.51
2019-05-14T04:23:09.376Z,57.33
2019-05-14T04:23:51.022Z,57.56
2019-05-14T04:24:30.891Z,57.66
2019-05-14T04:25:10.840Z,57.71
2019-05-14T04:25:50.089Z,57.28
2019-05-14T04:26:30.227Z,57.36
2019-05-14T04:27:12.782Z,57.35
2019-05-14T04:27:49.426Z,57.37
2019-05-14T04:28:24.989Z,57.35
2019-05-14T04:29:02.022Z,57.33
2019-05-14T04:29:41.195Z,57.37
2019-05-14T04:30:23.570Z,57.33
2019-05-14T04:30:59.721Z,57.49
2019-05-14T04:31:34.460Z,57.48
2019-05-14T04:32:11.799Z,57.48
2019-05-14T04:32:50.798Z,57.45
2019-05-14T04:33:30.393Z,57.46
2019-05-14T04:34:05.918Z,57.46
2019-05-14T04:34:42.171Z,57.45
2019-05-14T04:35:20.186Z,57.60
2019-05-14T04:35:59.858Z,57.71
2019-05-14T04:36:35.191Z,57.71
2019-05-14T04:37:12.680Z,57.64
2019-05-14T04:37:49.621Z,57.67
2019-05-14T04:38:29.637Z,57.61
2019-05-14T04:39:04.745Z,57.58
2019-05-14T04:39:41.031Z,57.46
2019-05-14T04:40:18.947Z,57.49
2019-05-14T04:40:54.673Z,57.60
2019-05-14T04:41:30.721Z,57.66
2019-05-14T04:42:09.662Z,57.53
2019-05-14T04:42:44.266Z,57.80
2019-05-14T04:43:20.964Z,57.76
2019-05-14T04:43:59.466Z,57.53
2019-05-14T04:44:34.714Z,57.55
2019-05-14T04:45:11.514Z,57.75
2019-05-14T04:45:49.641Z,57.85
2019-05-14T04:46:25.668Z,57.94
2019-05-14T04:47:20.224Z,57.93
2019-05-14T04:47:42.005Z,57.83
2019-05-14T04:48:28.933Z,57.79
2019-05-14T04:48:59.207Z,57.72
2019-05-14T04:49:34.286Z,57.79
2019-05-14T04:50:10.872Z,57.83
2019-05-14T04:50:49.737Z,57.94
2019-05-14T04:51:25.673Z,57.98
2019-05-14T04:52:01.341Z,57.90
2019-05-14T04:52:40.350Z,57.73
2019-05-14T04:53:14.988Z,57.73
2019-05-14T04:53:50.753Z,57.91
2019-05-14T04:54:29.888Z,57.94
2019-05-14T04:55:04.679Z,57.94
2019-05-14T04:55:40.320Z,58.00
2019-05-14T04:56:19.536Z,57.98
2019-05-14T04:56:54.858Z,57.88
2019-05-14T04:57:30.450Z,57.74
2019-05-14T04:58:09.810Z,57.52
2019-05-14T04:58:44.193Z,57.32
2019-05-14T04:59:19.890Z,57.33
2019-05-14T04:59:55.917Z,57.37
2019-05-14T05:00:32.401Z,57.36
2019-05-14T05:01:09.845Z,57.33
2019-05-14T05:01:49.390Z,57.32
2019-05-14T05:02:24.629Z,57.27
2019-05-14T05:03:00.672Z,57.42
2019-05-14T05:03:39.695Z,57.40
2019-05-14T05:04:14.671Z,56.86
2019-05-14T05:04:50.896Z,57.12
2019-05-14T05:05:29.956Z,57.12
2019-05-14T05:06:05.334Z,57.36
2019-05-14T05:06:40.988Z,57.08
2019-05-14T05:07:19.193Z,57.24
2019-05-14T05:07:54.685Z,57.27
2019-05-14T05:08:31.086Z,57.27
2019-05-14T05:09:09.664Z,56.95
2019-05-14T05:09:46.307Z,56.91
2019-05-14T05:10:22.393Z,56.88
2019-05-14T05:10:59.921Z,56.98
2019-05-14T05:11:39.545Z,56.54
2019-05-14T05:12:13.985Z,56.71
2019-05-14T05:12:50.380Z,56.89
2019-05-14T05:13:29.066Z,56.89
2019-05-14T05:14:04.295Z,56.88
2019-05-14T05:14:40.117Z,56.89
2019-05-14T05:15:19.550Z,56.81
2019-05-14T05:15:53.863Z,56.16
2019-05-14T05:16:29.923Z,56.16
2019-05-14T05:17:05.735Z,56.53
2019-05-14T05:17:48.299Z,56.58
2019-05-14T05:18:19.871Z,56.37
2019-05-14T05:18:56.014Z,56.37
2019-05-14T05:19:31.513Z,56.57
2019-05-14T05:20:09.822Z,56.46
2019-05-14T05:20:45.636Z,56.46
2019-05-14T05:21:21.651Z,56.84
2019-05-14T05:21:58.679Z,56.84
2019-05-14T05:22:34.856Z,56.26
2019-05-14T05:23:10.530Z,56.32
2019-05-14T05:23:49.038Z,56.20
2019-05-14T05:24:24.723Z,56.33
2019-05-14T05:25:01.132Z,56.21
2019-05-14T05:25:38.431Z,56.21
2019-05-14T05:26:14.982Z,56.09
2019-05-14T05:26:50.431Z,56.18
2019-05-14T05:27:28.710Z,56.34
2019-05-14T05:28:04.516Z,56.18
2019-05-14T05:28:40.274Z,56.11
2019-05-14T05:29:18.418Z,55.99
2019-05-14T05:29:53.829Z,56.12
2019-05-14T05:30:29.639Z,55.95
2019-05-14T05:31:06.146Z,55.70
2019-05-14T05:31:41.954Z,55.70
2019-05-14T05:32:19.441Z,55.86
2019-05-14T05:32:55.879Z,55.75
2019-05-14T05:33:32.783Z,55.95
2019-05-14T05:34:08.945Z,55.95
2019-05-14T05:34:48.132Z,55.62
2019-05-14T05:35:23.438Z,55.68
2019-05-14T05:35:59.563Z,55.76
2019-05-14T05:36:38.034Z,55.76
2019-05-14T05:37:14.376Z,55.65
2019-05-14T05:37:50.343Z,55.65
2019-05-14T05:38:29.196Z,55.74
2019-05-14T05:39:08.643Z,55.76
2019-05-14T05:39:44.261Z,55.56
2019-05-14T05:40:20.270Z,55.42
2019-05-14T05:40:57.751Z,55.42
2019-05-14T05:41:33.768Z,55.50
2019-05-14T05:42:10.633Z,55.29
2019-05-14T05:42:48.810Z,55.29
2019-05-14T05:43:24.308Z,55.05
2019-05-14T05:44:00.154Z,54.75
2019-05-14T05:44:36.165Z,55.08
2019-05-14T05:45:12.271Z,55.29
2019-05-14T05:45:48.726Z,55.33
2019-05-14T05:46:24.636Z,55.27
2019-05-14T05:47:00.286Z,55.22
2019-05-14T05:47:38.868Z,54.83
2019-05-14T05:48:14.798Z,55.26
2019-05-14T05:48:50.273Z,55.26
2019-05-14T05:49:29.001Z,54.99
2019-05-14T05:50:04.853Z,54.74
2019-05-14T05:50:40.795Z,54.29
2019-05-14T05:51:18.764Z,54.32
2019-05-14T05:51:54.807Z,54.39
2019-05-14T05:52:30.576Z,54.47
2019-05-14T05:53:09.015Z,54.58
2019-05-14T05:53:44.512Z,54.23
2019-05-14T05:54:20.447Z,54.00
2019-05-14T05:54:58.359Z,53.93
2019-05-14T05:55:34.190Z,53.93
2019-05-14T05:56:09.930Z,53.71
2019-05-14T05:56:48.140Z,53.71
2019-05-14T05:57:24.419Z,53.63
2019-05-14T05:58:00.459Z,53.97
2019-05-14T05:58:36.292Z,53.88
2019-05-14T05:59:12.289Z,53.62
2019-05-14T05:59:48.629Z,53.29
2019-05-14T06:00:39.502Z,53.60
2019-05-14T06:01:13.856Z,53.29
2019-05-14T06:01:50.333Z,53.55
2019-05-14T06:02:29.116Z,53.55
2019-05-14T06:03:04.767Z,53.35
2019-05-14T06:03:40.252Z,53.23
2019-05-14T06:04:18.169Z,53.27
2019-05-14T06:04:54.593Z,53.27
2019-05-14T06:05:30.638Z,53.50
2019-05-14T06:06:13.266Z,53.50
2019-05-14T06:06:44.506Z,52.86
2019-05-14T06:07:20.242Z,52.86
2019-05-14T06:07:58.882Z,52.83
2019-05-14T06:08:33.928Z,52.71
2019-05-14T06:09:09.846Z,52.71
2019-05-14T06:09:48.372Z,52.59
2019-05-14T06:10:24.611Z,52.59
2019-05-14T06:11:00.662Z,52.50
2019-05-14T06:11:38.155Z,52.23
2019-05-14T06:12:14.723Z,52.28
2019-05-14T06:12:50.779Z,52.28
2019-05-14T06:13:28.743Z,52.25
2019-05-14T06:14:04.468Z,51.99
2019-05-14T06:14:40.736Z,51.99
2019-05-14T06:15:18.791Z,52.38
2019-05-14T06:15:54.353Z,51.95
2019-05-14T06:16:30.324Z,52.20
2019-05-14T06:17:08.452Z,52.20
2019-05-14T06:17:44.249Z,52.20
2019-05-14T06:18:22.191Z,52.10
2019-05-14T06:18:58.799Z,52.01
2019-05-14T06:19:37.955Z,51.93
2019-05-14T06:20:13.466Z,51.93
2019-05-14T06:20:49.742Z,51.59
2019-05-14T06:21:29.012Z,51.59
2019-05-14T06:22:04.378Z,51.65
2019-05-14T06:22:40.426Z,51.46
2019-05-14T06:23:18.746Z,51.46
2019-05-14T06:23:54.072Z,51.60
2019-05-14T06:24:30.125Z,51.56
2019-05-14T06:25:10.539Z,51.03
2019-05-14T06:25:44.498Z,51.26
2019-05-14T06:26:20.638Z,51.26
2019-05-14T06:26:58.557Z,50.97
2019-05-14T06:27:34.128Z,50.97
2019-05-14T06:28:09.957Z,51.06
2019-05-14T06:28:48.430Z,50.80
2019-05-14T06:29:23.574Z,50.25
2019-05-14T06:29:59.987Z,50.64
2019-05-14T06:30:39.795Z,50.64
2019-05-14T06:31:15.439Z,50.65
2019-05-14T06:31:51.949Z,50.65
2019-05-14T06:32:29.124Z,50.75
2019-05-14T06:33:05.017Z,50.29
2019-05-14T06:33:41.007Z,50.11
2019-05-14T06:34:18.724Z,50.27
2019-05-14T06:34:54.976Z,50.19
2019-05-14T06:35:31.177Z,49.81
2019-05-14T06:36:08.696Z,49.94
2019-05-14T06:36:44.523Z,49.93
2019-05-14T06:37:20.927Z,49.62
2019-05-14T06:37:58.209Z,49.60
2019-05-14T06:38:34.410Z,49.84
2019-05-14T06:39:11.235Z,49.71
2019-05-14T06:39:48.403Z,49.90
2019-05-14T06:40:24.269Z,49.79
2019-05-14T06:41:00.873Z,49.94
2019-05-14T06:41:42.475Z,50.01
2019-05-14T06:42:14.694Z,49.99
2019-05-14T06:42:50.695Z,49.93
2019-05-14T06:43:28.764Z,49.69
2019-05-14T06:44:04.649Z,48.95
2019-05-14T06:44:40.678Z,48.95
2019-05-14T06:45:18.709Z,49.49
2019-05-14T06:45:54.143Z,49.31
2019-05-14T06:46:30.649Z,49.20
2019-05-14T06:47:09.254Z,49.11
2019-05-14T06:47:45.185Z,49.20
2019-05-14T06:48:30.771Z,49.29
2019-05-14T06:48:59.244Z,49.17
2019-05-14T06:49:35.004Z,49.17
2019-05-14T06:50:10.846Z,49.35
2019-05-14T06:50:46.865Z,49.23
2019-05-14T06:51:22.627Z,48.93
2019-05-14T06:51:59.405Z,49.12
2019-05-14T06:52:35.789Z,49.09
2019-05-14T06:53:11.467Z,49.12
2019-05-14T06:53:49.919Z,48.79
2019-05-14T06:54:25.630Z,49.00
2019-05-14T06:55:01.247Z,49.00
2019-05-14T06:55:39.341Z,49.13
2019-05-14T06:56:17.957Z,49.15
2019-05-14T06:56:52.290Z,49.11
2019-05-14T06:57:28.699Z,49.03
2019-05-14T06:58:04.782Z,49.17
2019-05-14T06:58:40.389Z,49.10
2019-05-14T06:59:18.177Z,48.77
2019-05-14T06:59:54.671Z,49.13
2019-05-14T07:00:30.674Z,49.24
2019-05-14T07:01:09.227Z,49.17
2019-05-14T07:01:45.090Z,48.91
2019-05-14T07:02:20.953Z,48.79
2019-05-14T07:02:58.384Z,48.80
2019-05-14T07:03:34.445Z,48.46
2019-05-14T07:04:10.525Z,48.44
2019-05-14T07:04:48.408Z,48.02
2019-05-14T07:05:24.473Z,48.01
2019-05-14T07:06:00.198Z,47.97
2019-05-14T07:06:38.894Z,48.31
2019-05-14T07:07:14.665Z,48.43
2019-05-14T07:07:50.312Z,48.16
2019-05-14T07:08:28.459Z,48.38
2019-05-14T07:09:05.455Z,48.06
2019-05-14T07:09:42.666Z,47.78
2019-05-14T07:10:19.632Z,47.29
2019-05-14T07:10:59.019Z,47.10
2019-05-14T07:11:34.299Z,46.96
2019-05-14T07:12:10.512Z,47.05
2019-05-14T07:12:46.509Z,46.91
2019-05-14T07:13:22.239Z,47.06
2019-05-14T07:13:59.138Z,47.04
2019-05-14T07:14:35.957Z,46.72
2019-05-14T07:15:12.060Z,46.48
2019-05-14T07:15:49.021Z,45.93
2019-05-14T07:16:25.323Z,45.32
2019-05-14T07:17:00.835Z,45.46
2019-05-14T07:17:38.438Z,45.71
2019-05-14T07:18:14.682Z,45.49
2019-05-14T07:18:54.126Z,45.28
2019-05-14T07:19:29.412Z,44.93
2019-05-14T07:20:08.837Z,44.11
2019-05-14T07:20:44.724Z,43.88
2019-05-14T07:21:20.770Z,43.83
2019-05-14T07:21:58.315Z,43.83
2019-05-14T07:22:34.110Z,44.10
2019-05-14T07:23:10.445Z,44.09
2019-05-14T07:23:48.997Z,44.48
2019-05-14T07:24:24.349Z,44.62
2019-05-14T07:25:00.833Z,44.64
2019-05-14T07:25:39.125Z,44.46
2019-05-14T07:26:14.177Z,44.49
2019-05-14T07:26:50.012Z,44.40
2019-05-14T07:27:28.238Z,44.14
2019-05-14T07:28:03.506Z,43.99
2019-05-14T07:28:42.203Z,43.75
2019-05-14T07:29:18.623Z,43.72
2019-05-14T07:29:54.492Z,43.40
2019-05-14T07:30:30.529Z,43.37
2019-05-14T07:31:09.502Z,43.00
2019-05-14T07:31:44.641Z,43.06
2019-05-14T07:32:20.642Z,43.18
2019-05-14T07:32:58.819Z,43.42
2019-05-14T07:33:34.925Z,43.25
2019-05-14T07:34:10.743Z,42.78
2019-05-14T07:34:48.190Z,42.49
2019-05-14T07:35:24.370Z,42.36
2019-05-14T07:36:00.858Z,42.36
2019-05-14T07:36:38.750Z,42.10
2019-05-14T07:37:15.104Z,42.15
2019-05-14T07:37:51.131Z,42.38
2019-05-14T07:38:28.409Z,42.86
2019-05-14T07:39:09.071Z,42.86
2019-05-14T07:39:43.217Z,43.03
2019-05-14T07:40:19.346Z,42.98
2019-05-14T07:40:55.074Z,42.95
2019-05-14T07:41:30.991Z,42.95
2019-05-14T07:42:09.342Z,42.90
2019-05-14T07:42:44.320Z,42.63
2019-05-14T07:43:20.377Z,42.35
2019-05-14T07:43:58.508Z,42.19
2019-05-14T07:44:34.666Z,42.07
2019-05-14T07:45:11.101Z,41.97
2019-05-14T07:45:49.099Z,41.96
2019-05-14T07:46:24.827Z,41.09
2019-05-14T07:47:01.246Z,41.09
2019-05-14T07:47:38.812Z,41.07
2019-05-14T07:48:15.045Z,41.44
2019-05-14T07:49:04.492Z,41.09
2019-05-14T07:49:31.915Z,41.09
2019-05-14T07:50:08.631Z,41.21
2019-05-14T07:50:47.842Z,40.83
2019-05-14T07:51:22.736Z,40.84
2019-05-14T07:51:58.810Z,41.45
2019-05-14T07:52:44.925Z,41.45
2019-05-14T07:53:17.873Z,41.61
2019-05-14T07:53:53.133Z,41.41